Main page
METAR-TAF:

METAR-TAF

Airports :

Balıkesir Koca Seyit Airport

Edremit, Turkey

latitude: 39-33-16N, longitude: 27-00-49E, elevation: 15 m

Current weather observation

The report was made 17 minutes ago, at 11:50 UTC
Wind 3 kt from the East/Southeast
Temperature 18°C
Humidity 68%
Pressure 1011 hPa
Visibility 10 km or more
Scattered clouds at a height of 3500 ft
Broken clouds at a height of 10000 ft

METAR: LTFD 211150Z 11003KT 9999 SCT035 BKN100 18/12 Q1011

Time: 15:07 (12:07 UTC)

Forecast

The report was made 1 hour and 27 minutes ago, at 10:40 UTC
Forecast valid from 21 at 12 UTC to 21 at 21 UTC
Wind 8 kt from the East
Visibility 10 km or more
Scattered clouds at a height of 3500 ft
Broken clouds at a height of 10000 ft

TAF: LTFD 211040Z 2112/2121 08008KT 9999 SCT035 BKN100

Weather observations and forecasts of more than 4000 airports (METAR and TAF reports).

The available stations are represented by yellow and red dots on the map.

Hover mouse over dot to see the name of the station.

Then click to see weather observations and forecasts.

To change the map : click on the green buttons with a black cross to zoom in, on the green button with a dash to zoom out, or on the green arrows for adjacent maps.


METAR-TAF: